Time;durP1;ratioP1;P1;durP2;ratioP2;P2;SDS_P1;SDS_P2;PMS_P1;PMS_P2;Temp;Humidity;BMP_temperature;BMP_pressure;BME280_temperature;BME280_humidity;BME280_pressure;Samples;Min_cycle;Max_cycle;Signal;HPM_P1;HPM_P2
2023/12/11 00:00:19;;;;;;;132.13;73.63;;;;;;;11.75;nan;98775.75;5066252;28;20047;-65
2023/12/11 00:02:49;;;;;;;127.50;71.78;;;;;;;11.50;nan;98772.75;5084411;28;20493;-65
2023/12/11 00:05:18;;;;;;;119.93;70.90;;;;;;;11.43;nan;98773.72;5083858;28;20136;-66
2023/12/11 00:07:48;;;;;;;117.90;70.45;;;;;;;11.75;nan;98769.63;5084292;28;20075;-66
2023/12/11 00:10:17;;;;;;;125.53;70.53;;;;;;;11.57;nan;98763.00;5083628;28;20224;-66
2023/12/11 00:12:46;;;;;;;123.38;73.07;;;;;;;11.88;nan;98764.34;5066306;28;20056;-66
2023/12/11 00:15:16;;;;;;;125.57;70.88;;;;;;;11.66;nan;98767.09;5082733;28;20055;-65
2023/12/11 00:17:46;;;;;;;116.78;70.57;;;;;;;11.71;nan;98775.31;5105257;28;20058;-65
2023/12/11 00:20:15;;;;;;;121.80;71.15;;;;;;;11.86;nan;98780.47;5104895;28;20087;-65
2023/12/11 00:22:44;;;;;;;115.07;70.85;;;;;;;11.96;nan;98777.44;5104756;28;20112;-66
2023/12/11 00:25:14;;;;;;;111.60;71.68;;;;;;;11.78;nan;98779.81;5102156;28;20076;-65
2023/12/11 00:27:44;;;;;;;111.97;72.43;;;;;;;11.77;nan;98775.56;5105607;28;20062;-65
2023/12/11 00:30:14;;;;;;;112.97;71.00;;;;;;;11.56;nan;98781.75;5103706;28;20474;-65
2023/12/11 00:32:44;;;;;;;115.10;70.57;;;;;;;11.57;nan;98786.84;5104065;28;20143;-65
2023/12/11 00:35:14;;;;;;;122.32;74.40;;;;;;;11.67;nan;98784.66;5104159;28;20055;-65
2023/12/11 00:37:44;;;;;;;122.22;74.70;;;;;;;11.92;nan;98792.13;5103562;28;20050;-66
2023/12/11 00:40:13;;;;;;;116.53;74.15;;;;;;;11.94;nan;98795.41;5103801;28;20055;-65
2023/12/11 00:42:43;;;;;;;116.22;71.10;;;;;;;12.08;nan;98794.44;5104143;28;20717;-66
2023/12/11 00:45:16;;;;;;;127.28;74.50;;;;;;;11.91;nan;98806.41;5097332;28;20052;-66
2023/12/11 00:47:46;;;;;;;120.20;73.70;;;;;;;11.64;nan;98810.75;5103417;28;20043;-65
2023/12/11 00:50:16;;;;;;;111.65;70.53;;;;;;;11.55;nan;98811.97;5103408;28;20101;-66
2023/12/11 00:52:45;;;;;;;110.53;72.53;;;;;;;11.76;nan;98808.41;5104157;28;21006;-66
2023/12/11 00:55:14;;;;;;;116.45;70.85;;;;;;;11.56;nan;98809.09;5104303;28;20097;-65
2023/12/11 00:57:44;;;;;;;110.18;71.03;;;;;;;11.70;nan;98818.75;5103806;28;20104;-66
2023/12/11 01:00:14;;;;;;;118.35;72.95;;;;;;;11.86;nan;98824.78;5103340;28;20134;-66
2023/12/11 01:02:44;;;;;;;124.00;75.35;;;;;;;11.88;nan;98820.91;5104025;28;20059;-65
2023/12/11 01:05:13;;;;;;;112.78;70.88;;;;;;;11.54;nan;98829.69;5103965;28;20051;-66
2023/12/11 01:07:43;;;;;;;105.28;68.35;;;;;;;11.60;nan;98836.84;5103371;28;20666;-66
2023/12/11 01:10:12;;;;;;;120.80;73.88;;;;;;;11.64;nan;98838.09;5103129;28;20055;-66
2023/12/11 01:12:42;;;;;;;118.15;71.57;;;;;;;11.57;nan;98842.56;5104721;28;20047;-66
2023/12/11 01:15:12;;;;;;;119.40;74.15;;;;;;;11.79;nan;98839.84;5094917;28;20733;-65
2023/12/11 01:17:41;;;;;;;114.88;71.57;;;;;;;11.56;nan;98845.41;5104559;28;20139;-66
2023/12/11 01:20:11;;;;;;;122.30;74.68;;;;;;;11.58;nan;98849.50;5104315;28;20348;-66
2023/12/11 01:22:41;;;;;;;124.82;74.63;;;;;;;11.79;nan;98847.81;5104671;28;20040;-66
2023/12/11 01:25:10;;;;;;;120.13;73.68;;;;;;;11.77;nan;98847.19;5104336;28;20047;-65
2023/12/11 01:27:40;;;;;;;121.63;73.47;;;;;;;11.57;nan;98842.56;5103002;28;20051;-65
2023/12/11 01:30:10;;;;;;;119.35;73.57;;;;;;;11.23;nan;98847.84;5105627;28;20071;-66
2023/12/11 01:32:39;;;;;;;124.05;72.68;;;;;;;11.20;nan;98851.69;5108146;28;20116;-66
2023/12/11 01:35:09;;;;;;;120.03;72.82;;;;;;;11.21;nan;98852.50;5080712;28;20487;-66
2023/12/11 01:37:39;;;;;;;125.90;74.30;;;;;;;11.23;nan;98867.22;5094915;28;20060;-65
2023/12/11 01:40:09;;;;;;;122.68;73.07;;;;;;;11.28;nan;98864.00;5106421;28;20055;-66
2023/12/11 01:42:38;;;;;;;121.18;73.70;;;;;;;11.03;nan;98860.94;5094741;28;20067;-66
2023/12/11 01:45:08;;;;;;;117.10;73.30;;;;;;;11.08;nan;98857.72;5104934;27;20047;-66
2023/12/11 01:47:38;;;;;;;121.28;75.55;;;;;;;11.14;nan;98870.22;5106997;28;20075;-66
2023/12/11 01:50:08;;;;;;;120.93;72.70;;;;;;;11.28;nan;98872.75;5105159;28;20162;-66
2023/12/11 01:52:38;;;;;;;119.28;77.32;;;;;;;11.50;nan;98878.03;5108099;28;20067;-66
2023/12/11 01:55:08;;;;;;;124.75;75.85;;;;;;;11.25;nan;98886.41;5106981;28;20056;-66
2023/12/11 01:57:38;;;;;;;127.57;74.57;;;;;;;11.33;nan;98880.13;5107120;27;20043;-66
2023/12/11 02:00:08;;;;;;;127.35;76.32;;;;;;;11.55;nan;98888.88;5107197;28;20415;-66
2023/12/11 02:02:38;;;;;;;135.45;80.35;;;;;;;11.67;nan;98889.97;5107786;28;20047;-68
2023/12/11 02:05:07;;;;;;;125.93;75.15;;;;;;;11.58;nan;98894.59;5107497;27;20055;-66
2023/12/11 02:07:38;;;;;;;120.47;76.78;;;;;;;11.59;nan;98887.47;5107676;28;20124;-66
2023/12/11 02:10:09;;;;;;;124.97;76.20;;;;;;;11.41;nan;98887.13;5106837;27;20073;-66
2023/12/11 02:12:39;;;;;;;120.53;78.15;;;;;;;11.45;nan;98883.91;5107406;28;20116;-66
2023/12/11 02:15:09;;;;;;;120.10;77.35;;;;;;;11.26;nan;98887.22;5086273;28;20474;-66
2023/12/11 02:17:39;;;;;;;123.18;78.18;;;;;;;11.32;nan;98886.47;5104253;28;20052;-66
2023/12/11 02:20:09;;;;;;;131.57;78.53;;;;;;;11.53;nan;98894.38;5106537;28;20079;-66
2023/12/11 02:22:38;;;;;;;131.10;77.45;;;;;;;11.42;nan;98899.38;5089671;28;20164;-66
2023/12/11 02:25:08;;;;;;;131.38;78.00;;;;;;;11.17;nan;98905.09;5106573;28;20150;-66
2023/12/11 02:27:38;;;;;;;135.95;81.72;;;;;;;11.43;nan;98901.81;5107077;28;20678;-66
2023/12/11 02:30:07;;;;;;;137.85;81.32;;;;;;;11.57;nan;98910.69;5105931;28;20047;-66
2023/12/11 02:32:37;;;;;;;129.13;81.80;;;;;;;11.76;nan;98909.22;5106210;27;20044;-66
2023/12/11 02:35:07;;;;;;;134.50;81.07;;;;;;;11.75;nan;98912.91;5108328;27;20062;-66
2023/12/11 02:37:36;;;;;;;134.52;80.53;;;;;;;11.49;nan;98921.47;5097966;28;20150;-66
2023/12/11 02:40:07;;;;;;;141.77;83.03;;;;;;;11.52;nan;98923.72;5104513;27;20051;-66
2023/12/11 02:42:36;;;;;;;133.77;82.43;;;;;;;11.73;nan;98936.97;5106182;28;20047;-66
2023/12/11 02:45:06;;;;;;;133.80;81.75;;;;;;;11.71;nan;98931.00;5105845;28;20375;-66
2023/12/11 02:47:36;;;;;;;126.80;78.57;;;;;;;11.79;nan;98941.50;5106572;28;20116;-66
2023/12/11 02:50:07;;;;;;;131.43;82.80;;;;;;;11.94;nan;98933.44;5105823;27;20055;-66
2023/12/11 02:52:37;;;;;;;137.65;81.68;;;;;;;12.23;nan;98948.28;5106649;28;20046;-66
2023/12/11 02:55:06;;;;;;;135.30;81.57;;;;;;;12.14;nan;98945.78;5105897;28;20812;-67
2023/12/11 02:57:36;;;;;;;130.30;79.22;;;;;;;12.18;nan;98945.38;5105609;28;20044;-66
2023/12/11 03:00:10;;;;;;;129.68;81.60;;;;;;;12.36;nan;98956.31;5105420;28;20055;-66
2023/12/11 03:02:40;;;;;;;151.60;86.63;;;;;;;12.60;nan;98951.31;5105870;28;20136;-66
2023/12/11 03:05:09;;;;;;;137.13;82.15;;;;;;;12.53;nan;98952.28;5100624;28;20104;-65
2023/12/11 03:07:39;;;;;;;146.25;85.53;;;;;;;12.50;nan;98960.66;5105719;28;20059;-66
2023/12/11 03:10:09;;;;;;;149.85;86.05;;;;;;;12.60;nan;98961.13;5098752;28;20047;-66
2023/12/11 03:12:39;;;;;;;154.65;86.63;;;;;;;12.98;nan;98977.38;5105868;28;20056;-66
2023/12/11 03:15:09;;;;;;;149.23;89.75;;;;;;;13.16;nan;98977.66;5105335;27;20426;-66
2023/12/11 03:17:39;;;;;;;145.38;91.45;;;;;;;13.35;nan;98986.69;5105858;28;20055;-66
2023/12/11 03:20:12;;;;;;;142.27;89.43;;;;;;;13.47;nan;98985.06;5085707;28;20776;-66
2023/12/11 03:22:41;;;;;;;140.57;91.88;;;;;;;13.38;nan;98991.59;5090014;28;20136;-66
2023/12/11 03:25:11;;;;;;;148.60;93.35;;;;;;;13.73;nan;99002.88;5101382;27;20402;-66
2023/12/11 03:27:40;;;;;;;148.38;94.47;;;;;;;14.10;nan;99009.41;5105563;28;20047;-66
2023/12/11 03:30:10;;;;;;;134.95;90.20;;;;;;;14.42;nan;99005.06;5103293;28;20047;-66
2023/12/11 03:32:39;;;;;;;142.95;90.43;;;;;;;14.91;nan;99015.13;5064152;28;20054;-66
2023/12/11 03:35:09;;;;;;;140.80;89.53;;;;;;;15.40;nan;99017.91;5105232;28;20043;-66
2023/12/11 03:37:39;;;;;;;148.65;90.80;;;;;;;15.75;nan;99017.50;5103411;28;20051;-66
2023/12/11 03:40:09;;;;;;;133.63;86.53;;;;;;;15.96;nan;99027.78;5105017;28;20059;-67
2023/12/11 03:42:38;;;;;;;135.32;86.82;;;;;;;16.49;nan;99031.59;5105651;28;20758;-66
2023/12/11 03:45:08;;;;;;;123.68;84.97;;;;;;;16.81;nan;99037.63;5096214;28;20042;-67
2023/12/11 03:47:37;;;;;;;133.23;85.13;;;;;;;17.28;nan;99045.88;5105925;28;20047;-66
2023/12/11 03:50:07;;;;;;;129.50;84.50;;;;;;;17.70;nan;99046.72;5105151;28;20054;-67
2023/12/11 03:52:37;;;;;;;124.47;80.55;;;;;;;17.75;nan;99055.69;5105383;28;20051;-66
2023/12/11 03:55:07;;;;;;;121.50;82.15;;;;;;;17.86;nan;99057.59;5104734;28;20554;-66
2023/12/11 03:57:36;;;;;;;121.55;82.20;;;;;;;17.59;nan;99064.41;5095894;28;20043;-66
2023/12/11 04:00:06;;;;;;;122.05;82.90;;;;;;;17.88;nan;99063.53;5104610;28;20055;-66
2023/12/11 04:02:36;;;;;;;118.20;80.75;;;;;;;18.40;nan;99071.75;5103447;28;20123;-66
2023/12/11 04:05:06;;;;;;;123.50;81.65;;;;;;;18.91;nan;99076.34;5092588;28;20040;-66
2023/12/11 04:07:35;;;;;;;126.50;81.85;;;;;;;19.27;nan;99084.06;5103705;28;20047;-66
2023/12/11 04:10:05;;;;;;;132.48;84.57;;;;;;;19.22;nan;99075.09;5104771;28;20052;-66
2023/12/11 04:12:35;;;;;;;121.88;82.78;;;;;;;19.26;nan;99076.25;5098976;28;20055;-64
2023/12/11 04:15:05;;;;;;;117.07;83.20;;;;;;;19.37;nan;99085.31;5104798;28;20048;-65
2023/12/11 04:17:34;;;;;;;141.18;83.88;;;;;;;19.51;nan;99087.53;5088949;28;20047;-65
2023/12/11 04:20:05;;;;;;;127.18;85.45;;;;;;;19.40;nan;99077.59;5101717;27;20829;-65
2023/12/11 04:22:35;;;;;;;128.18;83.90;;;;;;;18.74;nan;99078.16;5103528;28;20043;-65
2023/12/11 04:25:05;;;;;;;124.50;84.47;;;;;;;19.40;nan;99082.16;5102253;28;20105;-66
2023/12/11 04:27:34;;;;;;;120.18;85.15;;;;;;;19.94;nan;99092.31;5087798;28;20048;-65
2023/12/11 04:30:04;;;;;;;129.75;86.65;;;;;;;20.13;nan;99092.91;5096238;28;20055;-65
2023/12/11 04:32:34;;;;;;;133.25;88.38;;;;;;;19.98;nan;99088.06;5101011;28;20364;-65
2023/12/11 04:35:04;;;;;;;128.63;88.97;;;;;;;20.47;nan;99085.63;5102157;28;20126;-65
2023/12/11 04:37:34;;;;;;;130.07;88.18;;;;;;;20.35;nan;99084.94;5100733;28;20047;-66
2023/12/11 04:40:05;;;;;;;125.65;87.22;;;;;;;20.14;nan;99094.50;5102521;28;20051;-66
2023/12/11 04:42:35;;;;;;;130.80;86.65;;;;;;;20.27;nan;99099.56;5092640;28;20117;-65
2023/12/11 04:45:05;;;;;;;128.43;88.18;;;;;;;19.68;nan;99101.81;5104298;28;20098;-65
2023/12/11 04:47:34;;;;;;;123.20;89.97;;;;;;;19.72;nan;99094.91;5104179;28;20396;-65
2023/12/11 04:50:04;;;;;;;138.98;92.90;;;;;;;19.19;nan;99092.53;5104359;28;20128;-66
2023/12/11 04:52:33;;;;;;;130.20;91.13;;;;;;;19.15;nan;99093.22;5104707;28;20043;-65
2023/12/11 04:55:03;;;;;;;134.15;88.30;;;;;;;18.91;nan;99087.09;5089202;28;20444;-65
2023/12/11 04:57:33;;;;;;;126.97;87.97;;;;;;;19.18;nan;99095.44;5101959;28;20050;-65
2023/12/11 05:00:04;;;;;;;122.75;84.53;;;;;;;19.09;nan;99084.25;5100800;28;20066;-66
2023/12/11 05:02:34;;;;;;;109.85;82.07;;;;;;;19.07;nan;99082.88;5103271;28;20043;-65
2023/12/11 05:05:04;;;;;;;116.35;82.75;;;;;;;19.36;nan;99081.81;5095435;27;20051;-70
2023/12/11 05:07:33;;;;;;;112.25;82.32;;;;;;;19.48;nan;99084.47;5096700;27;20073;-71
2023/12/11 05:10:03;;;;;;;107.93;75.78;;;;;;;18.82;nan;99088.50;5096704;28;20071;-70
2023/12/11 05:12:33;;;;;;;106.35;73.47;;;;;;;18.55;nan;99100.78;5104708;28;20071;-70
2023/12/11 05:15:02;;;;;;;101.72;70.95;;;;;;;18.58;nan;99094.97;5097822;28;20096;-70
2023/12/11 05:17:32;;;;;;;103.80;71.60;;;;;;;18.86;nan;99095.03;5100421;28;20062;-70
2023/12/11 05:20:01;;;;;;;117.93;73.65;;;;;;;19.30;nan;99094.34;5105285;27;20508;-70
2023/12/11 05:22:31;;;;;;;118.30;79.40;;;;;;;19.17;nan;99097.28;5094580;28;20063;-70
2023/12/11 05:25:01;;;;;;;102.82;76.72;;;;;;;19.22;nan;99093.91;5104377;28;20649;-71
2023/12/11 05:27:30;;;;;;;111.43;78.63;;;;;;;19.05;nan;99091.16;5093329;28;20499;-70
2023/12/11 05:30:00;;;;;;;110.65;76.35;;;;;;;18.88;nan;99092.13;5103799;28;20047;-70
2023/12/11 05:32:30;;;;;;;111.80;76.57;;;;;;;19.17;nan;99096.47;5103933;28;20535;-69
2023/12/11 05:34:59;;;;;;;110.68;77.13;;;;;;;19.30;nan;99099.72;5102576;28;20043;-70
2023/12/11 05:37:29;;;;;;;109.97;77.70;;;;;;;19.63;nan;99093.66;5104373;28;20071;-63
2023/12/11 05:39:59;;;;;;;107.40;78.90;;;;;;;19.47;nan;99096.31;5104261;27;20654;-64
2023/12/11 05:42:48;;;;;;;106.03;77.63;;;;;;;19.89;nan;99104.84;5105359;28;20391;-63
2023/12/11 05:45:17;;;;;;;119.95;80.68;;;;;;;19.73;nan;99101.91;5105204;28;20082;-64
2023/12/11 05:47:47;;;;;;;122.90;86.68;;;;;;;19.40;nan;99104.47;5106087;28;20056;-64
2023/12/11 05:50:16;;;;;;;121.13;86.28;;;;;;;19.76;nan;99094.41;5099870;27;20043;-64
2023/12/11 05:52:46;;;;;;;121.05;87.47;;;;;;;19.70;nan;99094.31;5061589;28;20135;-63
2023/12/11 05:55:16;;;;;;;119.88;88.30;;;;;;;20.02;nan;99083.03;5097617;28;20047;-64
2023/12/11 05:57:45;;;;;;;117.07;83.47;;;;;;;20.32;nan;99074.63;5107606;28;20075;-63
2023/12/11 06:00:16;;;;;;;118.28;81.55;;;;;;;20.65;nan;99073.78;5074391;27;20062;-64
2023/12/11 06:02:46;;;;;;;124.80;80.40;;;;;;;20.54;nan;99070.94;5092120;28;20059;-63
2023/12/11 06:05:15;;;;;;;106.30;74.68;;;;;;;20.45;nan;99077.00;5097824;28;20058;-65
2023/12/11 06:07:45;;;;;;;110.43;76.03;;;;;;;20.52;nan;99072.25;5104842;28;20055;-65
2023/12/11 06:10:14;;;;;;;113.40;76.05;;;;;;;20.62;nan;99075.88;5103335;27;20055;-65
2023/12/11 06:12:44;;;;;;;106.05;73.65;;;;;;;20.66;nan;99070.84;5101749;28;20366;-65
2023/12/11 06:15:13;;;;;;;105.05;75.15;;;;;;;20.87;nan;99069.22;5103444;28;20044;-65
2023/12/11 06:17:43;;;;;;;105.35;71.95;;;;;;;21.00;nan;99066.16;5105577;28;20124;-65
2023/12/11 06:20:12;;;;;;;111.75;76.13;;;;;;;21.28;nan;99057.91;5103921;27;20043;-65
2023/12/11 06:22:42;;;;;;;107.80;76.03;;;;;;;21.30;nan;99055.75;5103219;28;20058;-64
2023/12/11 06:25:12;;;;;;;100.18;76.38;;;;;;;21.21;nan;99054.59;5102069;28;20054;-63
2023/12/11 06:27:41;;;;;;;110.18;73.70;;;;;;;21.33;nan;99046.38;5102581;27;20454;-64
2023/12/11 06:30:11;;;;;;;104.40;78.85;;;;;;;21.18;nan;99046.19;5094034;28;20043;-65
2023/12/11 06:32:45;;;;;;;113.07;75.32;;;;;;;21.24;nan;99046.03;5097401;27;20093;-65
2023/12/11 06:35:15;;;;;;;100.15;73.78;;;;;;;20.92;nan;99047.75;5093312;27;20139;-65
2023/12/11 06:37:44;;;;;;;98.93;71.22;;;;;;;21.66;nan;99043.47;5099471;28;21282;-66
2023/12/11 06:40:14;;;;;;;98.18;72.03;;;;;;;21.34;nan;99039.91;5101011;28;20051;-65
2023/12/11 06:42:44;;;;;;;97.35;70.28;;;;;;;21.52;nan;99056.53;5096600;28;20047;-64
2023/12/11 06:45:13;;;;;;;97.95;69.85;;;;;;;21.54;nan;99037.44;5100698;28;20105;-66
2023/12/11 06:47:43;;;;;;;105.10;73.40;;;;;;;21.41;nan;99038.66;5104048;28;20052;-68
2023/12/11 06:50:13;;;;;;;96.47;70.13;;;;;;;21.47;nan;99026.03;5100875;28;20123;-65
2023/12/11 06:52:43;;;;;;;98.20;68.53;;;;;;;21.69;nan;99025.94;5105316;28;20043;-66
2023/12/11 06:55:12;;;;;;;99.15;65.97;;;;;;;21.79;nan;99024.16;5101533;27;20393;-65
2023/12/11 06:57:42;;;;;;;102.38;71.38;;;;;;;21.65;nan;99025.66;5100174;28;20051;-64
2023/12/11 07:00:13;;;;;;;106.85;71.45;;;;;;;21.62;nan;99014.56;5100221;27;20751;-63
2023/12/11 07:02:43;;;;;;;95.18;67.15;;;;;;;21.48;nan;99017.69;5101308;28;20071;-66
2023/12/11 07:05:12;;;;;;;89.50;64.55;;;;;;;21.22;nan;99015.81;5097836;27;20108;-68
2023/12/11 07:07:42;;;;;;;93.57;64.55;;;;;;;21.32;nan;99010.53;5102300;27;20047;-65
2023/12/11 07:10:12;;;;;;;105.68;68.43;;;;;;;21.93;nan;99005.69;5103027;27;20104;-65
2023/12/11 07:12:45;;;;;;;107.57;74.75;;;;;;;22.12;nan;99004.22;5103709;27;20142;-66
2023/12/11 07:15:15;;;;;;;100.43;73.20;;;;;;;22.08;nan;99008.53;5095769;27;20735;-65
2023/12/11 07:17:45;;;;;;;106.53;76.00;;;;;;;22.06;nan;98997.16;5103306;27;20048;-68
2023/12/11 07:20:15;;;;;;;99.45;74.63;;;;;;;21.91;nan;99003.22;5101308;28;20493;-67
2023/12/11 07:22:46;;;;;;;93.25;66.95;;;;;;;21.84;nan;99001.81;5104038;28;20051;-63
2023/12/11 07:25:16;;;;;;;93.70;65.47;;;;;;;21.98;nan;98996.84;5100984;28;20063;-66
2023/12/11 07:27:46;;;;;;;88.10;61.80;;;;;;;21.65;nan;99006.78;5102448;28;20048;-65
2023/12/11 07:30:16;;;;;;;88.43;62.70;;;;;;;21.86;nan;98984.28;5102510;28;20864;-65
2023/12/11 07:32:47;;;;;;;87.28;60.88;;;;;;;22.06;nan;98989.06;5101651;28;20055;-66
2023/12/11 07:35:16;;;;;;;73.60;52.33;;;;;;;22.13;nan;98981.53;5102711;28;20054;-66
2023/12/11 07:37:45;;;;;;;72.13;49.33;;;;;;;22.06;nan;98985.56;5101353;28;20056;-66
2023/12/11 07:40:16;;;;;;;73.90;49.25;;;;;;;22.05;nan;98982.03;5096701;28;20051;-66
2023/12/11 07:42:45;;;;;;;75.15;51.10;;;;;;;22.32;nan;98987.34;5097658;28;20047;-65
2023/12/11 07:45:15;;;;;;;108.45;69.70;;;;;;;22.28;nan;98983.53;5100294;27;20044;-66
2023/12/11 07:47:44;;;;;;;136.85;94.93;;;;;;;22.03;nan;98986.91;5101006;28;20055;-67
2023/12/11 07:50:14;;;;;;;135.65;96.43;;;;;;;22.03;nan;98983.38;5102119;27;20478;-66
2023/12/11 07:52:44;;;;;;;128.00;91.80;;;;;;;21.71;nan;98981.50;5102586;28;20055;-66
2023/12/11 07:55:13;;;;;;;129.63;91.38;;;;;;;21.90;nan;98984.63;5100882;28;20053;-66
2023/12/11 07:57:43;;;;;;;136.32;96.10;;;;;;;21.46;nan;98973.22;5092020;28;20074;-66
2023/12/11 08:00:13;;;;;;;138.38;95.60;;;;;;;21.38;nan;98965.56;5100311;28;20055;-66
2023/12/11 08:02:42;;;;;;;135.88;93.38;;;;;;;21.67;nan;98960.72;5102096;28;20058;-65
2023/12/11 08:05:12;;;;;;;134.80;92.53;;;;;;;21.80;nan;98968.34;5102015;27;20055;-65
2023/12/11 08:07:45;;;;;;;135.48;93.15;;;;;;;21.71;nan;98961.81;5091865;28;20052;-65
2023/12/11 08:10:16;;;;;;;131.23;94.88;;;;;;;21.55;nan;98954.69;5101817;28;20044;-65
2023/12/11 08:12:52;;;;;;;140.13;96.55;;;;;;;21.54;nan;98948.47;5104191;28;20143;-65
2023/12/11 08:15:22;;;;;;;140.70;96.45;;;;;;;21.41;nan;98947.03;5103846;28;20126;-65
2023/12/11 08:17:51;;;;;;;149.02;98.50;;;;;;;21.35;nan;98939.97;5103321;28;20051;-64
2023/12/11 08:20:21;;;;;;;135.85;97.90;;;;;;;21.31;nan;98936.16;5103518;28;20055;-65
2023/12/11 08:22:50;;;;;;;140.45;101.95;;;;;;;21.52;nan;98927.16;5097614;28;20055;-65
2023/12/11 08:25:20;;;;;;;156.00;110.80;;;;;;;21.49;nan;98935.78;5102203;28;20144;-65
2023/12/11 08:27:49;;;;;;;209.77;141.45;;;;;;;21.27;nan;98937.75;5095820;28;20058;-65
2023/12/11 08:30:19;;;;;;;261.75;163.18;;;;;;;21.08;nan;98931.06;5107195;27;20043;-65
2023/12/11 08:32:49;;;;;;;244.55;162.35;;;;;;;20.99;nan;98922.63;5114344;27;20050;-65
2023/12/11 08:35:18;;;;;;;262.17;163.07;;;;;;;20.95;nan;98931.47;5107152;27;20044;-65
2023/12/11 08:37:47;;;;;;;252.00;164.95;;;;;;;20.89;nan;98929.81;5109904;27;20105;-65
2023/12/11 08:40:17;;;;;;;266.23;166.13;;;;;;;20.86;nan;98933.78;5109439;27;20766;-65
2023/12/11 08:42:47;;;;;;;262.50;168.95;;;;;;;20.86;nan;98927.59;5104026;28;20257;-63
2023/12/11 08:45:16;;;;;;;261.00;165.73;;;;;;;20.75;nan;98929.38;5105886;28;20054;-65
2023/12/11 08:47:46;;;;;;;252.27;161.40;;;;;;;20.77;nan;98921.03;5105141;27;20043;-65
2023/12/11 08:50:16;;;;;;;253.02;160.05;;;;;;;20.63;nan;98923.31;5094004;27;20463;-65
2023/12/11 08:52:46;;;;;;;244.95;155.65;;;;;;;20.64;nan;98919.56;5078777;27;20498;-64
2023/12/11 08:55:16;;;;;;;234.00;152.45;;;;;;;20.60;nan;98919.25;5099116;27;20047;-66
2023/12/11 08:57:45;;;;;;;234.90;155.95;;;;;;;20.60;nan;98921.94;5106289;27;20146;-64
2023/12/11 09:00:15;;;;;;;238.63;152.05;;;;;;;20.71;nan;98924.75;5095251;28;20620;-67
2023/12/11 09:02:45;;;;;;;238.55;155.18;;;;;;;20.59;nan;98924.88;5095632;27;20058;-64
2023/12/11 09:05:15;;;;;;;226.18;150.10;;;;;;;20.29;nan;98925.28;5102750;27;20134;-63
2023/12/11 09:07:45;;;;;;;238.50;149.73;;;;;;;20.11;nan;98921.03;5104537;28;20059;-62
2023/12/11 09:10:14;;;;;;;231.73;147.75;;;;;;;20.06;nan;98915.56;5103873;27;20046;-63
2023/12/11 09:12:44;;;;;;;230.38;146.68;;;;;;;20.18;nan;98921.66;5099420;27;20051;-63
2023/12/11 09:15:14;;;;;;;228.98;145.57;;;;;;;20.17;nan;98920.03;5095816;28;20128;-63
2023/12/11 09:17:43;;;;;;;236.35;146.70;;;;;;;20.32;nan;98924.81;5101894;28;20146;-63
2023/12/11 09:20:13;;;;;;;230.48;143.80;;;;;;;20.19;nan;98925.97;5102525;27;20051;-66
2023/12/11 09:22:46;;;;;;;243.90;146.77;;;;;;;20.34;nan;98913.81;5110068;27;20142;-65
2023/12/11 09:25:16;;;;;;;217.07;140.10;;;;;;;20.55;nan;98916.50;5104393;28;20109;-65
2023/12/11 09:27:45;;;;;;;228.30;140.75;;;;;;;20.28;nan;98912.91;5105212;28;20047;-65
2023/12/11 09:30:16;;;;;;;220.90;137.10;;;;;;;20.18;nan;98918.94;5102797;27;20309;-63
2023/12/11 09:32:45;;;;;;;209.32;134.25;;;;;;;20.16;nan;98909.53;5103183;27;20381;-65
2023/12/11 09:35:15;;;;;;;209.88;132.90;;;;;;;20.08;nan;98902.72;5096344;28;20040;-65
2023/12/11 09:37:46;;;;;;;222.38;134.32;;;;;;;20.24;nan;98906.38;5107855;28;20144;-65
2023/12/11 09:40:17;;;;;;;202.30;133.23;;;;;;;20.03;nan;98904.50;5107360;27;20470;-65
2023/12/11 09:42:48;;;;;;;202.25;130.18;;;;;;;19.99;nan;98898.00;5105331;28;20048;-65
2023/12/11 09:45:22;;;;;;;207.02;131.23;;;;;;;20.17;nan;98903.09;5107400;28;20421;-65
2023/12/11 09:47:57;;;;;;;203.73;130.05;;;;;;;20.08;nan;98904.56;5107908;28;20044;-63
2023/12/11 09:50:37;;;;;;;206.63;125.85;;;;;;;20.09;nan;98898.16;5103619;28;20043;-65
2023/12/11 09:53:08;;;;;;;194.75;126.30;;;;;;;19.97;nan;98894.72;5097705;28;20424;-66
2023/12/11 09:55:38;;;;;;;193.57;124.57;;;;;;;20.02;nan;98894.81;5105107;27;20058;-65
2023/12/11 09:58:08;;;;;;;181.43;122.32;;;;;;;19.98;nan;98891.00;5107017;27;20067;-65
2023/12/11 10:00:38;;;;;;;182.88;119.88;;;;;;;19.84;nan;98889.72;5095092;28;20044;-65
2023/12/11 10:03:08;;;;;;;200.75;121.97;;;;;;;19.92;nan;98878.53;5086852;28;20132;-66
2023/12/11 10:05:38;;;;;;;182.85;115.45;;;;;;;19.91;nan;98885.00;5106172;28;20044;-65
2023/12/11 10:08:07;;;;;;;182.40;117.97;;;;;;;19.74;nan;98887.69;5106042;27;20050;-66
2023/12/11 10:10:38;;;;;;;188.43;118.78;;;;;;;19.91;nan;98877.75;5104346;28;20058;-66
2023/12/11 10:13:08;;;;;;;192.25;118.20;;;;;;;19.90;nan;98880.66;5094364;28;20073;-65
2023/12/11 10:15:37;;;;;;;191.95;114.90;;;;;;;19.83;nan;98866.56;5106265;28;20058;-65
2023/12/11 10:18:15;;;;;;;180.00;113.88;;;;;;;19.93;nan;98864.84;5105982;27;20039;-65
2023/12/11 10:20:53;;;;;;;191.35;116.55;;;;;;;19.91;nan;98868.88;5107109;28;20109;-65
2023/12/11 10:23:23;;;;;;;174.00;111.20;;;;;;;19.70;nan;98870.44;5103927;28;20044;-66
2023/12/11 10:26:03;;;;;;;185.30;110.55;;;;;;;19.61;nan;98861.97;5104138;28;20059;-65
2023/12/11 10:28:33;;;;;;;170.48;105.68;;;;;;;19.53;nan;98858.91;5105761;27;20039;-66
2023/12/11 10:31:04;;;;;;;160.23;106.53;;;;;;;19.63;nan;98865.25;5099790;27;20043;-65
2023/12/11 10:33:46;;;;;;;166.00;105.43;;;;;;;19.69;nan;98866.94;5102694;28;20734;-63
2023/12/11 10:36:16;;;;;;;171.60;108.55;;;;;;;19.75;nan;98854.38;5104033;28;20031;-63
2023/12/11 10:38:46;;;;;;;187.73;106.78;;;;;;;19.68;nan;98857.25;5103885;28;20471;-64
2023/12/11 10:41:26;;;;;;;168.65;105.88;;;;;;;19.63;nan;98864.44;5103299;27;20058;-62
2023/12/11 10:43:56;;;;;;;169.68;104.55;;;;;;;19.59;nan;98860.63;5104781;28;20066;-63
2023/12/11 10:46:36;;;;;;;174.98;105.13;;;;;;;19.56;nan;98861.13;5097524;27;20071;-63
2023/12/11 10:49:06;;;;;;;162.07;103.75;;;;;;;19.60;nan;98865.75;5095111;28;20059;-64
2023/12/11 10:51:36;;;;;;;159.05;106.13;;;;;;;19.64;nan;98868.75;5088588;28;20549;-64
2023/12/11 10:54:06;;;;;;;169.10;107.45;;;;;;;19.44;nan;98863.06;5102550;27;20387;-63
2023/12/11 10:56:36;;;;;;;167.48;105.72;;;;;;;19.38;nan;98867.53;5105287;27;20055;-64
2023/12/11 10:59:06;;;;;;;154.70;103.32;;;;;;;19.32;nan;98865.81;5102802;28;20445;-62
2023/12/11 11:01:36;;;;;;;164.43;107.10;;;;;;;19.12;nan;98854.72;5102287;27;20086;-63
2023/12/11 11:04:09;;;;;;;167.75;107.97;;;;;;;19.05;nan;98849.53;5104252;28;20043;-62
2023/12/11 11:07:12;;;;;;;175.23;109.00;;;;;;;18.97;nan;98858.00;5103278;28;20163;-62
2023/12/11 11:10:00;;;;;;;178.77;109.60;;;;;;;18.95;nan;98851.22;5089050;27;20063;-62
2023/12/11 11:12:34;;;;;;;161.60;105.00;;;;;;;18.76;nan;98848.75;5099094;27;20051;-63
2023/12/11 11:15:05;;;;;;;162.13;109.55;;;;;;;18.74;nan;98848.19;5089223;28;20051;-61
2023/12/11 11:18:00;;;;;;;178.10;110.05;;;;;;;18.72;nan;98844.13;5112813;27;20058;-62
2023/12/11 11:20:40;;;;;;;178.35;110.00;;;;;;;18.60;nan;98844.19;5102719;28;20071;-62
2023/12/11 11:23:16;;;;;;;175.88;110.07;;;;;;;18.60;nan;98840.69;5102837;28;20641;-63
2023/12/11 11:25:51;;;;;;;189.27;111.00;;;;;;;18.54;nan;98842.47;5102709;28;20119;-62
2023/12/11 11:28:50;;;;;;;178.57;112.20;;;;;;;18.39;nan;98842.97;5095115;27;20056;-62
2023/12/11 11:31:19;;;;;;;176.73;111.30;;;;;;;18.41;nan;98842.69;5082936;28;20048;-63
2023/12/11 11:33:56;;;;;;;179.48;111.65;;;;;;;18.35;nan;98846.38;5105177;28;20051;-61
2023/12/11 11:36:48;;;;;;;181.45;112.53;;;;;;;18.30;nan;98841.72;5103599;27;20043;-62
2023/12/11 11:39:18;;;;;;;179.82;111.65;;;;;;;18.20;nan;98852.22;5104956;27;20047;-64